Time;durP1;ratioP1;P1;durP2;ratioP2;P2;SDS_P1;SDS_P2;PMS_P1;PMS_P2;Temp;Humidity;BMP_temperature;BMP_pressure;BME280_temperature;BME280_humidity;BME280_pressure;Samples;Min_cycle;Max_cycle;Signal;HPM_P1;HPM_P2
2022/05/25 00:04:11;;;;;;;8.68;2.25;;;;;;;;;;10416527;28;20318;-46
2022/05/25 00:09:12;;;;;;;5.82;2.22;;;;;;;;;;10394231;28;20037;-45
2022/05/25 00:14:13;;;;;;;3.38;1.77;;;;;;;;;;10415786;28;20029;-45
2022/05/25 00:24:33;;;;;;;7.85;2.08;;;;;;;;;;10334073;28;20026;-45
2022/05/25 00:29:36;;;;;;;6.93;1.58;;;;;;;;;;10333848;28;20038;-46
2022/05/25 00:34:37;;;;;;;5.35;2.05;;;;;;;;;;10391764;28;20479;-46
2022/05/25 00:39:40;;;;;;;9.07;2.50;;;;;;;;;;10414935;28;20025;-45
2022/05/25 00:44:40;;;;;;;7.68;2.15;;;;;;;;;;10412991;28;20025;-45
2022/05/25 00:49:41;;;;;;;5.68;1.95;;;;;;;;;;10349430;28;20026;-44
2022/05/25 00:54:50;;;;;;;6.07;1.88;;;;;;;;;;10396594;28;20029;-45
2022/05/25 00:59:57;;;;;;;9.38;1.90;;;;;;;;;;10409884;28;20037;-45
2022/05/25 01:04:57;;;;;;;1.98;1.50;;;;;;;;;;10373491;28;20030;-44
2022/05/25 01:10:40;;;;;;;4.05;1.90;;;;;;;;;;10373218;28;20041;-46
2022/05/25 01:16:07;;;;;;;1.83;1.50;;;;;;;;;;10381574;28;20034;-44
2022/05/25 01:21:26;;;;;;;2.00;1.80;;;;;;;;;;10373456;28;20054;-44
2022/05/25 01:26:48;;;;;;;4.68;1.60;;;;;;;;;;10356218;28;20029;-44
2022/05/25 01:32:17;;;;;;;3.78;1.63;;;;;;;;;;10373193;28;20498;-45
2022/05/25 01:37:26;;;;;;;3.00;1.73;;;;;;;;;;10371523;28;20640;-46
2022/05/25 01:42:41;;;;;;;3.38;1.50;;;;;;;;;;10373298;28;20038;-45
2022/05/25 01:47:46;;;;;;;4.93;1.48;;;;;;;;;;10412187;28;20165;-46
2022/05/25 01:52:55;;;;;;;6.03;1.60;;;;;;;;;;10393194;28;20030;-46
2022/05/25 01:58:02;;;;;;;6.55;1.70;;;;;;;;;;10411743;28;20401;-46
2022/05/25 02:09:00;;;;;;;4.65;1.67;;;;;;;;;;10392005;28;20066;-45
2022/05/25 02:14:28;;;;;;;4.65;1.70;;;;;;;;;;10379227;28;20045;-45
2022/05/25 02:19:52;;;;;;;3.33;1.58;;;;;;;;;;10394397;28;20116;-46
2022/05/25 02:24:57;;;;;;;3.63;1.60;;;;;;;;;;10393763;28;20500;-44
2022/05/25 02:30:04;;;;;;;3.22;1.88;;;;;;;;;;10369813;28;20040;-45
2022/05/25 02:35:06;;;;;;;2.93;1.53;;;;;;;;;;10369418;28;20371;-44
2022/05/25 02:40:09;;;;;;;5.18;1.83;;;;;;;;;;10358911;28;20472;-44
2022/05/25 02:45:11;;;;;;;2.55;1.40;;;;;;;;;;10368967;28;20032;-44
2022/05/25 02:50:12;;;;;;;5.57;1.38;;;;;;;;;;10358042;28;20428;-45
2022/05/25 02:55:13;;;;;;;1.95;1.30;;;;;;;;;;10409726;28;20296;-45
2022/05/25 03:00:15;;;;;;;3.33;1.42;;;;;;;;;;10374915;28;20029;-45
2022/05/25 03:05:15;;;;;;;3.60;1.70;;;;;;;;;;10409312;28;20017;-46
2022/05/25 03:10:16;;;;;;;1.05;1.05;;;;;;;;;;10400456;28;20470;-45
2022/05/25 03:15:20;;;;;;;7.18;1.50;;;;;;;;;;10368002;28;20486;-46
2022/05/25 03:20:21;;;;;;;7.63;1.52;;;;;;;;;;10371192;28;20029;-46
2022/05/25 03:25:21;;;;;;;3.17;1.63;;;;;;;;;;10368246;28;20029;-46
2022/05/25 03:30:22;;;;;;;3.97;1.48;;;;;;;;;;10371478;28;20517;-46
2022/05/25 03:35:23;;;;;;;4.65;1.48;;;;;;;;;;10414961;28;20283;-47
2022/05/25 03:40:23;;;;;;;2.13;1.50;;;;;;;;;;10415562;28;20060;-45
2022/05/25 03:45:24;;;;;;;2.13;1.25;;;;;;;;;;10417002;28;20028;-45
2022/05/25 03:50:25;;;;;;;4.82;1.15;;;;;;;;;;10413919;28;20433;-45
2022/05/25 03:55:25;;;;;;;4.13;1.42;;;;;;;;;;10416572;28;20389;-46
2022/05/25 04:00:26;;;;;;;1.73;1.17;;;;;;;;;;10414770;28;20033;-46
2022/05/25 04:05:27;;;;;;;1.35;1.25;;;;;;;;;;10416191;28;20219;-46
2022/05/25 04:10:28;;;;;;;2.35;1.48;;;;;;;;;;10414373;28;20042;-45
2022/05/25 04:15:33;;;;;;;2.75;1.55;;;;;;;;;;10415789;28;20029;-45
2022/05/25 04:20:33;;;;;;;4.43;1.45;;;;;;;;;;10393183;28;20151;-45
2022/05/25 04:25:34;;;;;;;3.17;1.45;;;;;;;;;;10375013;28;20236;-46
2022/05/25 04:30:35;;;;;;;2.22;1.27;;;;;;;;;;10375392;28;20064;-45
2022/05/25 04:35:35;;;;;;;3.38;1.23;;;;;;;;;;10373915;28;20076;-45
2022/05/25 04:40:40;;;;;;;2.55;1.30;;;;;;;;;;10375544;28;20553;-44
2022/05/25 04:45:43;;;;;;;3.08;1.25;;;;;;;;;;10373988;28;20111;-45
2022/05/25 04:50:45;;;;;;;4.82;1.20;;;;;;;;;;10378009;28;20084;-46
2022/05/25 05:01:08;;;;;;;1.98;1.30;;;;;;;;;;10334688;28;20033;-45
2022/05/25 05:06:10;;;;;;;6.72;1.88;;;;;;;;;;10384726;28;20077;-44
2022/05/25 05:11:18;;;;;;;5.30;1.42;;;;;;;;;;10387709;28;20125;-46
2022/05/25 05:16:19;;;;;;;;;;;;;;;;;;10340981;28;20383;-44
2022/05/25 05:21:19;;;;;;;9.93;1.70;;;;;;;;;;10368289;28;19913;-44
2022/05/25 05:26:20;;;;;;;18.42;1.50;;;;;;;;;;10371415;28;20033;-44
2022/05/25 05:31:21;;;;;;;3.78;1.70;;;;;;;;;;10388230;28;20500;-44
2022/05/25 05:36:28;;;;;;;6.68;1.90;;;;;;;;;;10372499;28;20135;-45
2022/05/25 05:41:45;;;;;;;6.47;1.67;;;;;;;;;;10336499;28;20040;-46
2022/05/25 05:46:49;;;;;;;7.63;1.98;;;;;;;;;;10366424;28;20038;-46
2022/05/25 05:51:50;;;;;;;9.15;2.15;;;;;;;;;;10370476;28;20029;-43
2022/05/25 05:56:51;;;;;;;20.60;2.42;;;;;;;;;;10370078;28;20061;-44
2022/05/25 06:01:52;;;;;;;8.27;1.95;;;;;;;;;;10370689;28;20056;-44
2022/05/25 06:06:53;;;;;;;6.50;2.38;;;;;;;;;;10370613;28;20525;-44
2022/05/25 06:11:54;;;;;;;3.95;2.13;;;;;;;;;;10370290;28;20133;-44
2022/05/25 06:22:15;;;;;;;14.32;2.70;;;;;;;;;;10370084;28;20038;-44
2022/05/25 06:27:18;;;;;;;9.80;2.47;;;;;;;;;;10352478;28;20045;-45
2022/05/25 06:32:23;;;;;;;6.20;2.70;;;;;;;;;;10370730;28;20458;-44
2022/05/25 06:37:25;;;;;;;4.97;2.33;;;;;;;;;;10369560;28;20049;-44
2022/05/25 06:42:26;;;;;;;12.35;2.40;;;;;;;;;;10369271;28;20371;-44
2022/05/25 06:47:27;;;;;;;5.70;2.58;;;;;;;;;;10369113;28;20029;-44
2022/05/25 06:52:29;;;;;;;12.80;2.75;;;;;;;;;;10368905;28;20034;-45
2022/05/25 06:57:29;;;;;;;5.95;2.80;;;;;;;;;;10368805;28;20025;-43
2022/05/25 07:02:30;;;;;;;7.20;2.75;;;;;;;;;;10368795;28;20414;-44
2022/05/25 07:07:31;;;;;;;8.20;3.08;;;;;;;;;;10367991;28;20080;-44
2022/05/25 07:12:32;;;;;;;8.32;3.05;;;;;;;;;;10368601;28;20026;-45
2022/05/25 07:17:34;;;;;;;10.40;2.90;;;;;;;;;;10368181;28;20113;-45
2022/05/25 07:22:39;;;;;;;16.70;3.15;;;;;;;;;;10368059;28;20124;-45
2022/05/25 07:27:39;;;;;;;8.23;3.00;;;;;;;;;;10367928;28;20096;-43
2022/05/25 07:32:40;;;;;;;5.90;2.92;;;;;;;;;;10368026;28;20034;-45
2022/05/25 07:37:47;;;;;;;7.75;3.08;;;;;;;;;;10350407;28;20454;-45
2022/05/25 07:42:51;;;;;;;4.90;2.97;;;;;;;;;;10350681;28;20068;-44
2022/05/25 07:47:54;;;;;;;9.43;3.53;;;;;;;;;;10350219;28;20104;-44
2022/05/25 07:52:59;;;;;;;7.90;2.80;;;;;;;;;;10367865;28;20034;-44
2022/05/25 07:57:59;;;;;;;9.27;3.13;;;;;;;;;;10366367;28;20053;-43
2022/05/25 08:08:24;;;;;;;10.20;3.10;;;;;;;;;;10367286;28;20116;-45
2022/05/25 08:13:25;;;;;;;5.85;2.92;;;;;;;;;;10366187;28;20022;-44
2022/05/25 08:18:26;;;;;;;6.53;3.20;;;;;;;;;;10366914;28;20026;-44
2022/05/25 08:23:26;;;;;;;9.52;3.75;;;;;;;;;;10374679;28;20022;-45
2022/05/25 08:28:27;;;;;;;6.30;2.70;;;;;;;;;;10373330;28;20029;-46
2022/05/25 08:33:28;;;;;;;6.78;2.85;;;;;;;;;;10375003;28;20036;-44
2022/05/25 08:38:28;;;;;;;8.63;3.42;;;;;;;;;;10373816;28;20050;-44
2022/05/25 08:43:45;;;;;;;7.05;3.15;;;;;;;;;;10374292;28;20065;-44
2022/05/25 08:48:46;;;;;;;7.68;3.47;;;;;;;;;;10372521;28;20214;-44
2022/05/25 08:53:48;;;;;;;8.32;2.72;;;;;;;;;;10374132;28;20038;-44
2022/05/25 08:59:02;;;;;;;7.32;3.50;;;;;;;;;;10373254;28;20425;-44
2022/05/25 09:04:12;;;;;;;8.20;3.80;;;;;;;;;;10356929;28;20029;-44
2022/05/25 09:09:23;;;;;;;10.45;3.58;;;;;;;;;;10373277;28;20113;-46
2022/05/25 09:14:34;;;;;;;8.32;3.38;;;;;;;;;;10373435;28;20037;-44
2022/05/25 09:19:39;;;;;;;14.65;3.10;;;;;;;;;;10372479;28;20119;-45
2022/05/25 09:24:40;;;;;;;7.00;2.78;;;;;;;;;;10355036;28;20030;-46
2022/05/25 09:29:41;;;;;;;4.38;3.13;;;;;;;;;;10372112;28;20072;-44
2022/05/25 09:34:55;;;;;;;5.50;3.08;;;;;;;;;;10371588;28;20041;-44
2022/05/25 09:40:10;;;;;;;8.50;2.95;;;;;;;;;;10372162;28;20378;-46
2022/05/25 09:45:14;;;;;;;14.95;3.40;;;;;;;;;;10371477;28;20038;-44
2022/05/25 09:50:31;;;;;;;7.25;3.00;;;;;;;;;;10371349;28;20038;-45
2022/05/25 09:55:40;;;;;;;5.60;3.05;;;;;;;;;;10371034;28;20038;-45
2022/05/25 10:01:05;;;;;;;10.10;2.88;;;;;;;;;;10370972;28;20104;-45
2022/05/25 10:06:31;;;;;;;7.47;3.08;;;;;;;;;;10369753;28;20026;-45
2022/05/25 10:11:50;;;;;;;6.63;3.42;;;;;;;;;;10370529;28;20033;-45
2022/05/25 10:17:03;;;;;;;11.02;3.58;;;;;;;;;;10370381;28;20476;-44
2022/05/25 10:22:04;;;;;;;12.23;3.03;;;;;;;;;;10369989;28;20021;-44
2022/05/25 10:27:19;;;;;;;5.82;3.20;;;;;;;;;;10372641;28;20041;-45
2022/05/25 10:38:02;;;;;;;9.23;3.00;;;;;;;;;;10407412;28;20510;-44
2022/05/25 10:43:03;;;;;;;14.88;2.88;;;;;;;;;;10378161;28;20117;-45
2022/05/25 10:48:20;;;;;;;8.70;3.42;;;;;;;;;;10394750;28;20272;-44
2022/05/25 10:53:43;;;;;;;8.15;3.40;;;;;;;;;;10356856;28;20060;-48
2022/05/25 10:59:18;;;;;;;8.65;3.17;;;;;;;;;;10393545;28;20045;-46
2022/05/25 11:04:22;;;;;;;5.60;2.67;;;;;;;;;;10393303;28;20052;-45
2022/05/25 11:09:59;;;;;;;5.80;3.00;;;;;;;;;;10407662;28;20064;-45
2022/05/25 11:15:10;;;;;;;10.45;2.92;;;;;;;;;;10409438;28;20083;-44
2022/05/25 11:20:25;;;;;;;4.85;2.65;;;;;;;;;;10377725;28;20048;-45
2022/05/25 11:26:06;;;;;;;9.15;3.25;;;;;;;;;;10371616;28;20398;-49
2022/05/25 11:31:22;;;;;;;6.15;2.83;;;;;;;;;;10355825;28;20037;-45
2022/05/25 11:36:43;;;;;;;4.13;2.55;;;;;;;;;;10356574;28;20045;-46
2022/05/25 11:42:22;;;;;;;5.80;3.25;;;;;;;;;;10392861;28;20028;-47
2022/05/25 11:48:11;;;;;;;6.78;3.00;;;;;;;;;;10375830;28;20045;-44
2022/05/25 11:53:32;;;;;;;3.65;2.70;;;;;;;;;;10313667;28;20022;-46
2022/05/25 11:58:59;;;;;;;5.85;3.03;;;;;;;;;;10367579;28;20111;-44
2022/05/25 12:04:42;;;;;;;7.15;3.15;;;;;;;;;;10375824;28;20022;-44
2022/05/25 12:10:09;;;;;;;12.55;3.22;;;;;;;;;;10379790;28;20049;-46
2022/05/25 12:15:58;;;;;;;6.15;3.00;;;;;;;;;;10416188;28;20136;-45
2022/05/25 12:21:19;;;;;;;5.47;3.05;;;;;;;;;;10334124;28;20038;-44
2022/05/25 12:26:27;;;;;;;5.75;2.78;;;;;;;;;;10366357;28;20623;-45
2022/05/25 12:31:30;;;;;;;5.22;2.60;;;;;;;;;;10369667;28;20030;-44
2022/05/25 12:36:32;;;;;;;6.13;3.42;;;;;;;;;;10385006;28;20719;-43
2022/05/25 12:41:36;;;;;;;5.63;3.40;;;;;;;;;;10374736;28;20424;-47
2022/05/25 12:52:26;;;;;;;9.77;3.17;;;;;;;;;;10379842;28;20041;-46
2022/05/25 12:57:45;;;;;;;10.18;2.90;;;;;;;;;;10372717;28;20399;-46
2022/05/25 13:02:46;;;;;;;13.82;2.97;;;;;;;;;;10392187;28;20057;-44
2022/05/25 13:07:47;;;;;;;4.38;2.80;;;;;;;;;;10408449;28;20037;-45
2022/05/25 13:12:56;;;;;;;6.30;3.10;;;;;;;;;;10364170;28;20088;-46
2022/05/25 13:17:58;;;;;;;11.27;3.50;;;;;;;;;;10362915;28;20414;-44
2022/05/25 13:23:06;;;;;;;11.15;3.20;;;;;;;;;;10384253;28;20045;-46
2022/05/25 13:28:49;;;;;;;7.70;3.15;;;;;;;;;;10356207;28;20034;-45
2022/05/25 13:33:50;;;;;;;7.60;3.25;;;;;;;;;;10356734;28;20034;-44
2022/05/25 13:38:56;;;;;;;4.97;3.00;;;;;;;;;;10373773;28;20104;-48
2022/05/25 13:44:00;;;;;;;4.95;2.63;;;;;;;;;;10346987;28;20057;-46
2022/05/25 13:49:03;;;;;;;5.45;3.10;;;;;;;;;;10345060;28;20377;-49
2022/05/25 13:54:32;;;;;;;4.07;3.05;;;;;;;;;;10371733;28;20037;-48
2022/05/25 13:59:39;;;;;;;8.45;3.30;;;;;;;;;;10329688;28;20252;-46
2022/05/25 14:04:40;;;;;;;7.18;3.20;;;;;;;;;;10328079;28;20368;-49
2022/05/25 14:15:01;;;;;;;6.85;2.45;;;;;;;;;;10338749;28;20114;-46
2022/05/25 14:20:05;;;;;;;5.78;3.10;;;;;;;;;;10328378;28;20057;-44
2022/05/25 14:25:19;;;;;;;6.00;3.10;;;;;;;;;;10337888;28;20049;-45
2022/05/25 14:30:27;;;;;;;6.40;3.33;;;;;;;;;;10344861;28;20403;-45
2022/05/25 14:35:30;;;;;;;5.18;2.85;;;;;;;;;;10325677;28;20576;-49
2022/05/25 14:40:48;;;;;;;5.93;3.45;;;;;;;;;;10349074;28;20045;-46
2022/05/25 14:46:18;;;;;;;5.60;3.17;;;;;;;;;;10377171;28;20043;-44
2022/05/25 14:51:31;;;;;;;7.60;3.20;;;;;;;;;;10354023;28;20034;-45
2022/05/25 14:56:32;;;;;;;7.72;2.78;;;;;;;;;;10339863;28;20387;-44
2022/05/25 15:01:36;;;;;;;6.15;2.88;;;;;;;;;;10309992;28;20505;-47
2022/05/25 15:06:43;;;;;;;10.85;3.50;;;;;;;;;;10344093;28;20038;-44
2022/05/25 15:11:45;;;;;;;11.50;3.67;;;;;;;;;;10368403;28;20033;-44
2022/05/25 15:22:33;;;;;;;6.72;3.25;;;;;;;;;;10368312;28;20033;-45
2022/05/25 15:27:40;;;;;;;10.02;3.45;;;;;;;;;;10360783;28;20038;-44
2022/05/25 15:32:41;;;;;;;6.13;3.13;;;;;;;;;;10345965;28;20021;-46
2022/05/25 15:38:04;;;;;;;7.30;3.47;;;;;;;;;;10365118;28;20068;-46
2022/05/25 15:43:08;;;;;;;8.68;3.30;;;;;;;;;;10367815;28;20041;-48
2022/05/25 15:48:15;;;;;;;10.40;3.45;;;;;;;;;;10367299;28;20062;-50
2022/05/25 15:53:16;;;;;;;8.70;3.47;;;;;;;;;;10351494;28;20087;-43
2022/05/25 15:58:16;;;;;;;7.80;3.60;;;;;;;;;;10367826;28;20160;-43
2022/05/25 16:03:29;;;;;;;13.90;4.18;;;;;;;;;;10389467;28;20041;-44
2022/05/25 16:13:52;;;;;;;7.68;3.55;;;;;;;;;;10390394;28;20037;-44
2022/05/25 16:18:54;;;;;;;8.68;4.03;;;;;;;;;;10407774;28;20029;-44
2022/05/25 16:23:56;;;;;;;11.73;4.57;;;;;;;;;;10406191;28;20038;-44
2022/05/25 16:28:57;;;;;;;8.93;4.50;;;;;;;;;;10407487;28;20041;-44
2022/05/25 16:33:57;;;;;;;7.65;3.95;;;;;;;;;;10406350;28;20044;-43
2022/05/25 16:38:58;;;;;;;10.70;4.13;;;;;;;;;;10361683;28;20305;-44
2022/05/25 16:43:59;;;;;;;9.63;4.47;;;;;;;;;;10332644;28;20026;-44
2022/05/25 16:49:00;;;;;;;8.60;3.90;;;;;;;;;;10361415;28;20038;-45
2022/05/25 16:54:01;;;;;;;10.95;4.60;;;;;;;;;;10389448;28;20034;-44
2022/05/25 16:59:03;;;;;;;9.50;4.05;;;;;;;;;;10413976;28;20052;-45
2022/05/25 17:04:04;;;;;;;14.80;4.25;;;;;;;;;;10412647;28;20034;-45
2022/05/25 17:09:04;;;;;;;11.65;3.60;;;;;;;;;;10413797;28;20044;-45
2022/05/25 17:14:05;;;;;;;10.43;3.63;;;;;;;;;;10404875;28;20385;-46
2022/05/25 17:24:25;;;;;;;6.13;3.22;;;;;;;;;;10386434;28;20037;-44
2022/05/25 17:29:25;;;;;;;11.40;3.50;;;;;;;;;;10358623;28;20046;-46
2022/05/25 17:34:26;;;;;;;10.00;3.03;;;;;;;;;;10347717;28;20458;-46
2022/05/25 17:44:46;;;;;;;9.23;3.58;;;;;;;;;;10345500;28;20481;-46
2022/05/25 17:49:47;;;;;;;10.40;4.05;;;;;;;;;;10374102;28;20033;-43
2022/05/25 17:54:48;;;;;;;9.82;3.92;;;;;;;;;;10409544;28;20500;-43
2022/05/25 17:59:49;;;;;;;6.15;3.30;;;;;;;;;;10374195;28;20038;-46
2022/05/25 18:04:50;;;;;;;8.27;3.40;;;;;;;;;;10333791;28;20172;-47
2022/05/25 18:09:57;;;;;;;12.10;3.70;;;;;;;;;;10348849;28;20044;-44
2022/05/25 18:15:05;;;;;;;5.68;3.40;;;;;;;;;;10368283;28;20022;-45
2022/05/25 18:20:10;;;;;;;;;;;;;;;;;;10357820;28;20038;-49
2022/05/25 18:25:11;;;;;;;12.15;4.07;;;;;;;;;;10384384;28;19917;-45
2022/05/25 18:30:15;;;;;;;10.93;3.55;;;;;;;;;;10348776;28;20390;-45
2022/05/25 18:35:15;;;;;;;9.27;3.95;;;;;;;;;;10366104;28;20046;-43
2022/05/25 18:40:16;;;;;;;14.30;4.53;;;;;;;;;;10365079;28;20378;-46
2022/05/25 18:45:17;;;;;;;10.55;3.92;;;;;;;;;;10369406;28;20382;-43
2022/05/25 18:50:22;;;;;;;17.23;4.75;;;;;;;;;;10369257;28;20033;-54
2022/05/25 18:55:24;;;;;;;12.05;4.10;;;;;;;;;;10361180;28;20282;-46
2022/05/25 19:00:25;;;;;;;12.43;4.53;;;;;;;;;;10370758;28;20440;-46
2022/05/25 19:05:25;;;;;;;12.63;4.60;;;;;;;;;;10366006;28;20034;-47
2022/05/25 19:10:26;;;;;;;20.80;4.95;;;;;;;;;;10367634;28;20030;-49
2022/05/25 19:15:27;;;;;;;16.52;4.80;;;;;;;;;;10368687;28;20047;-49
2022/05/25 19:20:28;;;;;;;26.75;5.47;;;;;;;;;;10363326;28;20124;-50
2022/05/25 19:25:36;;;;;;;28.85;5.07;;;;;;;;;;10363103;28;20026;-49
2022/05/25 19:30:37;;;;;;;;;;;;;;;;;;10370915;28;20029;-53
2022/05/25 19:35:40;;;;;;;13.10;4.32;;;;;;;;;;10367044;28;19925;-53
2022/05/25 19:40:49;;;;;;;17.80;4.30;;;;;;;;;;10346141;28;20076;-49
2022/05/25 19:45:51;;;;;;;19.13;3.95;;;;;;;;;;10329598;28;20026;-49
2022/05/25 19:50:54;;;;;;;27.95;4.75;;;;;;;;;;10364908;28;20034;-50
2022/05/25 19:55:55;;;;;;;10.23;4.57;;;;;;;;;;10362458;28;20033;-49
2022/05/25 20:00:56;;;;;;;16.75;4.93;;;;;;;;;;10361362;28;20030;-49
2022/05/25 20:05:57;;;;;;;13.07;4.30;;;;;;;;;;10344211;28;20393;-50
2022/05/25 20:10:57;;;;;;;11.23;3.90;;;;;;;;;;10367235;28;20038;-50
2022/05/25 20:15:58;;;;;;;11.88;4.72;;;;;;;;;;10354815;28;20041;-49
2022/05/25 20:21:01;;;;;;;15.63;4.63;;;;;;;;;;10368038;28;20125;-49
2022/05/25 20:26:03;;;;;;;9.02;4.15;;;;;;;;;;10376939;28;20475;-52
2022/05/25 20:31:04;;;;;;;15.90;4.10;;;;;;;;;;10357964;28;20057;-53
2022/05/25 20:36:08;;;;;;;9.13;4.35;;;;;;;;;;10373678;28;20042;-52
2022/05/25 20:41:10;;;;;;;29.20;4.28;;;;;;;;;;10352817;28;20034;-54
2022/05/25 20:46:11;;;;;;;9.55;3.72;;;;;;;;;;10370821;28;20025;-53
2022/05/25 20:51:11;;;;;;;10.07;3.90;;;;;;;;;;10357940;28;20041;-53
2022/05/25 20:56:12;;;;;;;12.75;4.10;;;;;;;;;;10373831;28;20041;-53
2022/05/25 21:01:13;;;;;;;9.57;4.40;;;;;;;;;;10394394;28;20038;-54
2022/05/25 21:06:15;;;;;;;13.52;4.22;;;;;;;;;;10380183;28;20025;-52
2022/05/25 21:11:16;;;;;;;15.05;4.85;;;;;;;;;;10372299;28;20042;-49
2022/05/25 21:16:16;;;;;;;10.35;4.57;;;;;;;;;;10379259;28;20038;-50
2022/05/25 21:21:19;;;;;;;13.07;5.32;;;;;;;;;;10391398;28;20033;-49
2022/05/25 21:26:19;;;;;;;14.45;5.38;;;;;;;;;;10366476;28;20379;-49
2022/05/25 21:36:40;;;;;;;11.93;6.50;;;;;;;;;;10367629;28;20401;-52
2022/05/25 21:41:43;;;;;;;14.55;6.88;;;;;;;;;;10371480;28;20022;-49
2022/05/25 21:52:07;;;;;;;9.68;5.60;;;;;;;;;;10374400;28;20026;-49
2022/05/25 21:57:08;;;;;;;15.40;5.32;;;;;;;;;;10369795;28;20025;-51
2022/05/25 22:02:08;;;;;;;13.02;4.45;;;;;;;;;;10371175;28;20049;-50
2022/05/25 22:07:11;;;;;;;11.68;4.57;;;;;;;;;;10361938;28;20038;-51
2022/05/25 22:12:15;;;;;;;15.63;4.65;;;;;;;;;;10367348;28;20034;-53
2022/05/25 22:17:15;;;;;;;12.80;4.47;;;;;;;;;;10367293;28;20044;-51
2022/05/25 22:22:16;;;;;;;12.75;4.25;;;;;;;;;;10354082;28;20034;-48
2022/05/25 22:27:16;;;;;;;9.25;4.20;;;;;;;;;;10355651;28;20036;-50
2022/05/25 22:32:17;;;;;;;18.23;3.90;;;;;;;;;;10363284;28;20029;-53
2022/05/25 22:37:18;;;;;;;12.52;3.78;;;;;;;;;;10375729;28;20065;-52
2022/05/25 22:42:18;;;;;;;10.55;3.50;;;;;;;;;;10357225;28;20108;-50
2022/05/25 22:47:19;;;;;;;8.55;3.35;;;;;;;;;;10368607;28;20044;-54
2022/05/25 22:52:20;;;;;;;20.00;3.78;;;;;;;;;;10382252;28;20116;-54
2022/05/25 22:57:20;;;;;;;8.65;3.25;;;;;;;;;;10409479;28;20067;-54
2022/05/25 23:02:21;;;;;;;8.27;3.40;;;;;;;;;;10407849;28;20091;-49
2022/05/25 23:07:21;;;;;;;8.20;3.10;;;;;;;;;;10409253;28;20100;-48
2022/05/25 23:12:22;;;;;;;6.95;2.67;;;;;;;;;;10407580;28;20084;-47
2022/05/25 23:17:23;;;;;;;10.63;3.85;;;;;;;;;;10404283;28;20374;-48
2022/05/25 23:22:23;;;;;;;5.03;2.90;;;;;;;;;;10409540;28;20045;-48
2022/05/25 23:27:24;;;;;;;6.85;2.85;;;;;;;;;;10407267;28;20084;-47
2022/05/25 23:32:25;;;;;;;4.55;2.92;;;;;;;;;;10408963;28;20068;-48
2022/05/25 23:37:25;;;;;;;4.97;2.70;;;;;;;;;;10400891;28;20049;-47
2022/05/25 23:47:46;;;;;;;6.40;3.10;;;;;;;;;;10370507;28;20026;-47
2022/05/25 23:52:47;;;;;;;3.95;2.60;;;;;;;;;;10406794;28;20037;-47
2022/05/25 23:57:47;;;;;;;8.45;2.70;;;;;;;;;;10415129;28;20044;-47
